Impacts METAR Board
IDs:

KTPL - Temple/Miller Rgnl, TX, US

Updated at: 0600 UTC 19 Aug 2019
Potential Impact None Slight Moderate High
Time 18/18Z 18/19Z 18/20Z 18/21Z 18/22Z 18/23Z 19/00Z 19/01Z 19/02Z 19/03Z 19/04Z 19/05Z 19/06Z
Temp94 96 97 99 99 99 98 95 91 90 89 87 84
Dewpt72 70 69 69 67 65 66 67 67 73 71 72 73
Altim29.91 29.90 29.88 29.86 29.84 29.84 29.85 29.85 29.85 29.87 29.91 29.92 29.93
VIS10 10 10 10 10 10 10 10 10 10 10 10 10
CIG-- -- -- -- -- -- -- -- -- -- -- -- --
CoverCLRCLRCLRCLRCLRCLRCLRCLRCLRCLRCLRCLRCLR
FltCatVFRVFRVFRVFRVFRVFRVFRVFRVFRVFRVFRVFRVFR
WX--------------------------
WDir140170160150160160150130130140150160170
WSpd13 9 13 16 15 11 11 8 8 15 16 13 13
WGst20 17 17 19 -- -- -- -- -- -- -- -- --
Raw hourly METARs
KTPL 181751Z AUTO 14013G20KT 10SM CLR 34/22 A2991 RMK AO2 SLP113 T03440222 10344 20261 58002
KTPL 181851Z AUTO 17009G17KT 10SM CLR 36/21 A2990 RMK AO2 SLP112 T03560211
KTPL 181951Z AUTO 16013G17KT 10SM CLR 36/21 A2988 RMK AO2 SLP104 T03610206
KTPL 182051Z AUTO 15016G19KT 10SM CLR 37/21 A2986 RMK AO2 SLP098 T03720206 58017
KTPL 182151Z AUTO 16015KT 10SM CLR 37/19 A2984 RMK AO2 SLP091 T03720194
KTPL 182251Z AUTO 16011KT 10SM CLR 37/18 A2984 RMK AO2 SLP091 T03720183
KTPL 182351Z AUTO 15011KT 10SM CLR 37/19 A2985 RMK AO2 SLP092 T03670189 10378 20344 55003
KTPL 190051Z AUTO 13008KT 10SM CLR 35/19 A2985 RMK AO2 SLP094 T03500194
KTPL 190151Z AUTO 13008KT 10SM CLR 33/19 A2985 RMK AO2 SLP095 T03280194
KTPL 190251Z AUTO 14015KT 10SM CLR 32/23 A2987 RMK AO2 SLP102 T03220228 53008
KTPL 190351Z AUTO 15016KT 10SM CLR 32/22 A2991 RMK AO2 SLP114 T03170217
KTPL 190451Z AUTO 16013KT 10SM CLR 31/22 A2992 RMK AO2 SLP121 T03060222
KTPL 190551Z AUTO 17013KT 10SM CLR 29/23 A2993 RMK AO2 SLP120 T02890228 10367 20289 403780261 51019



Page loaded:  06:26 UTC  |   11:26 PM Pacific  |   12:26 AM Mountain  |   01:26 AM Central  |   02:26 AM Eastern

 

ADVISORIES

FORECASTS

FORECASTS

OBSERVATIONS

USER TOOLS

ABOUT US